createdAt,value
2018-04-16T00:01:36.307Z,13.60
2018-04-16T00:04:07.125Z,13.54
2018-04-16T00:06:37.928Z,13.51
2018-04-16T00:09:08.727Z,13.47
2018-04-16T00:11:39.539Z,13.56
2018-04-16T00:14:10.353Z,13.60
2018-04-16T00:16:41.147Z,13.65
2018-04-16T00:19:11.974Z,13.63
2018-04-16T00:21:42.798Z,13.64
2018-04-16T00:24:13.583Z,13.59
2018-04-16T00:26:44.390Z,13.55
2018-04-16T00:29:15.166Z,13.56
2018-04-16T00:31:52.109Z,13.47
2018-04-16T00:34:29.119Z,13.51
2018-04-16T00:37:06.052Z,13.52
2018-04-16T00:39:43.103Z,13.50
2018-04-16T00:42:20.159Z,13.59
2018-04-16T00:44:57.010Z,13.62
2018-04-16T00:47:33.941Z,13.63
2018-04-16T00:50:10.868Z,13.65
2018-04-16T00:52:47.868Z,13.66
2018-04-16T00:55:24.856Z,13.73
2018-04-16T00:58:01.708Z,13.74
2018-04-16T01:00:38.741Z,13.71
2018-04-16T01:03:15.691Z,13.69
2018-04-16T01:05:52.548Z,13.76
2018-04-16T01:08:29.472Z,13.72
2018-04-16T01:11:06.399Z,13.72
2018-04-16T01:13:43.414Z,13.62
2018-04-16T01:16:20.265Z,13.55
2018-04-16T01:18:57.184Z,13.50
2018-04-16T01:21:34.207Z,13.48
2018-04-16T01:24:11.100Z,13.51
2018-04-16T01:26:48.180Z,13.45
2018-04-16T01:29:25.003Z,13.49
2018-04-16T01:32:01.876Z,13.56
2018-04-16T01:34:38.726Z,13.49
2018-04-16T01:37:15.535Z,13.47
2018-04-16T01:39:52.301Z,13.42
2018-04-16T01:42:29.287Z,13.50
2018-04-16T01:45:06.362Z,13.36
2018-04-16T01:47:43.388Z,13.30
2018-04-16T01:50:20.332Z,13.26
2018-04-16T01:52:57.323Z,13.22
2018-04-16T01:55:34.356Z,13.16
2018-04-16T01:58:11.364Z,13.15
2018-04-16T02:00:48.465Z,13.20
2018-04-16T02:03:25.449Z,13.19
2018-04-16T02:06:02.570Z,13.19
2018-04-16T02:08:39.591Z,13.11
2018-04-16T02:11:16.423Z,13.09
2018-04-16T02:13:53.364Z,13.08
2018-04-16T02:16:30.383Z,13.04
2018-04-16T02:19:07.219Z,13.05
2018-04-16T02:21:44.081Z,13.09
2018-04-16T02:24:20.898Z,13.15
2018-04-16T02:26:57.760Z,13.23
2018-04-16T02:29:34.820Z,13.11
2018-04-16T02:32:11.860Z,13.04
2018-04-16T02:34:48.733Z,13.11
2018-04-16T02:37:25.772Z,13.07
2018-04-16T02:40:02.702Z,13.02
2018-04-16T02:45:42.428Z,13.12
2018-04-16T02:48:19.287Z,13.15
2018-04-16T02:50:56.368Z,13.06
2018-04-16T02:56:40.841Z,12.97
2018-04-16T02:59:17.753Z,13.00
2018-04-16T03:01:54.620Z,13.03
2018-04-16T03:04:31.638Z,13.02
2018-04-16T03:07:08.591Z,13.02
2018-04-16T03:09:45.600Z,13.04
2018-04-16T03:12:22.580Z,12.97
2018-04-16T03:14:59.563Z,12.95
2018-04-16T03:17:36.604Z,12.90
2018-04-16T03:20:13.460Z,12.88
2018-04-16T03:22:50.355Z,12.89
2018-04-16T03:25:27.216Z,12.92
2018-04-16T03:28:04.119Z,12.98
2018-04-16T03:30:40.977Z,13.05
2018-04-16T03:33:17.860Z,13.07
2018-04-16T03:39:01.524Z,12.99
2018-04-16T03:41:38.581Z,12.98
2018-04-16T03:44:15.563Z,12.93
2018-04-16T03:46:52.471Z,12.91
2018-04-16T03:49:29.447Z,12.83
2018-04-16T03:52:09.145Z,12.82
2018-04-16T03:54:39.964Z,12.84
2018-04-16T03:57:10.807Z,12.88
2018-04-16T03:59:41.588Z,12.82
2018-04-16T04:02:12.391Z,12.81
2018-04-16T04:04:43.187Z,12.77
2018-04-16T04:07:13.980Z,12.75
2018-04-16T04:09:44.771Z,12.68
2018-04-16T04:12:15.576Z,12.67
2018-04-16T04:14:46.344Z,12.66
2018-04-16T04:17:17.181Z,12.66
2018-04-16T04:19:47.991Z,12.66
2018-04-16T04:22:18.815Z,12.60
2018-04-16T04:25:02.093Z,12.58
2018-04-16T04:27:45.192Z,12.61
2018-04-16T04:30:28.408Z,12.61
2018-04-16T04:32:59.201Z,12.56
2018-04-16T04:35:29.985Z,12.57
2018-04-16T04:38:00.792Z,12.56
2018-04-16T04:40:31.582Z,12.61
2018-04-16T04:43:02.386Z,12.58
2018-04-16T04:45:33.145Z,12.55
2018-04-16T04:48:03.927Z,12.61
2018-04-16T04:50:34.746Z,12.60
2018-04-16T04:53:05.609Z,12.56
2018-04-16T04:55:36.392Z,12.62
2018-04-16T04:58:07.220Z,12.66
2018-04-16T05:00:38.005Z,12.67
2018-04-16T05:03:08.788Z,12.68
2018-04-16T05:05:39.585Z,12.67
2018-04-16T05:08:10.365Z,12.72
2018-04-16T05:10:41.143Z,12.72
2018-04-16T05:13:11.939Z,12.76
2018-04-16T05:15:42.721Z,12.79
2018-04-16T05:18:13.580Z,12.77
2018-04-16T05:20:44.352Z,12.75
2018-04-16T05:23:15.173Z,12.79
2018-04-16T05:25:45.971Z,12.81
2018-04-16T05:28:16.790Z,12.77
2018-04-16T05:30:47.602Z,12.78
2018-04-16T05:33:18.446Z,12.78
2018-04-16T05:35:49.308Z,12.78
2018-04-16T05:38:20.116Z,12.76
2018-04-16T05:40:50.884Z,12.74
2018-04-16T05:43:21.676Z,12.75
2018-04-16T05:45:52.459Z,12.75
2018-04-16T05:48:23.239Z,12.76
2018-04-16T05:50:54.019Z,12.78
2018-04-16T05:53:24.842Z,12.79
2018-04-16T05:55:55.643Z,12.85
2018-04-16T05:58:26.460Z,12.90
2018-04-16T06:00:57.277Z,12.98
2018-04-16T06:03:28.092Z,12.95
2018-04-16T06:05:58.903Z,12.92
2018-04-16T06:08:29.739Z,12.97
2018-04-16T06:11:00.518Z,13.05
2018-04-16T06:13:31.321Z,13.03
2018-04-16T06:16:02.135Z,13.12
2018-04-16T06:18:32.947Z,13.15
2018-04-16T06:21:03.757Z,13.20
2018-04-16T06:23:34.575Z,13.27
2018-04-16T06:26:05.398Z,13.33
2018-04-16T06:28:36.203Z,13.40
2018-04-16T06:31:06.994Z,13.48
2018-04-16T06:33:37.847Z,13.51
2018-04-16T06:36:08.636Z,13.62
2018-04-16T06:38:39.520Z,13.66
2018-04-16T06:41:10.331Z,13.73
2018-04-16T06:43:41.231Z,13.79
2018-04-16T06:46:12.106Z,13.83
2018-04-16T06:48:43.124Z,13.97
2018-04-16T06:51:14.029Z,14.17
2018-04-16T06:53:44.870Z,14.30
2018-04-16T06:56:15.700Z,14.35
2018-04-16T06:58:46.513Z,14.47
2018-04-16T07:01:17.366Z,14.62
2018-04-16T07:03:48.197Z,14.67
2018-04-16T07:06:18.982Z,14.73
2018-04-16T07:08:49.818Z,14.85
2018-04-16T07:11:20.606Z,14.81
2018-04-16T07:13:51.475Z,14.66
2018-04-16T07:16:22.317Z,14.55
2018-04-16T07:18:53.216Z,14.48
2018-04-16T07:21:24.123Z,14.44
2018-04-16T07:23:55.084Z,14.43
2018-04-16T07:26:25.879Z,14.56
2018-04-16T07:28:56.683Z,14.73
2018-04-16T07:31:27.571Z,14.78
2018-04-16T07:33:58.415Z,14.92
2018-04-16T07:36:29.373Z,14.96
2018-04-16T07:39:00.208Z,15.15
2018-04-16T07:41:31.107Z,15.21
2018-04-16T07:44:01.944Z,15.44
2018-04-16T07:46:32.760Z,15.60
2018-04-16T07:49:03.582Z,15.64
2018-04-16T07:51:34.325Z,15.73
2018-04-16T07:54:05.144Z,15.85
2018-04-16T07:56:35.943Z,15.93
2018-04-16T07:59:06.775Z,16.13
2018-04-16T08:01:37.608Z,16.31
2018-04-16T08:04:08.456Z,16.23
2018-04-16T08:06:39.250Z,16.62
2018-04-16T08:09:10.039Z,16.59
2018-04-16T08:11:40.890Z,16.59
2018-04-16T08:14:11.698Z,16.55
2018-04-16T08:16:42.584Z,16.64
2018-04-16T08:19:13.438Z,16.64
2018-04-16T08:21:44.168Z,16.80
2018-04-16T08:24:15.007Z,16.92
2018-04-16T08:26:45.785Z,16.64
2018-04-16T08:29:16.609Z,16.37
2018-04-16T08:31:47.415Z,16.13
2018-04-16T08:34:18.232Z,16.02
2018-04-16T08:36:49.004Z,16.16
2018-04-16T08:39:19.805Z,15.90
2018-04-16T08:41:50.628Z,15.70
2018-04-16T08:44:21.424Z,15.79
2018-04-16T08:46:52.199Z,15.86
2018-04-16T08:49:22.983Z,15.71
2018-04-16T08:51:53.763Z,15.66
2018-04-16T08:54:24.697Z,15.82
2018-04-16T08:56:55.487Z,15.67
2018-04-16T08:59:26.314Z,15.48
2018-04-16T09:01:57.135Z,15.27
2018-04-16T09:04:27.951Z,15.17
2018-04-16T09:06:58.761Z,15.15
2018-04-16T09:09:29.575Z,15.10
2018-04-16T09:12:00.347Z,15.04
2018-04-16T09:14:31.133Z,14.84
2018-04-16T09:17:01.976Z,14.72
2018-04-16T09:19:32.775Z,14.73
2018-04-16T09:22:03.556Z,14.78
2018-04-16T09:24:34.376Z,14.76
2018-04-16T09:27:05.157Z,14.78
2018-04-16T09:29:35.996Z,14.74
2018-04-16T09:32:06.807Z,14.91
2018-04-16T09:34:37.628Z,15.14
2018-04-16T09:37:08.416Z,15.22
2018-04-16T09:39:39.258Z,15.17
2018-04-16T09:42:10.086Z,15.35
2018-04-16T09:44:40.938Z,15.41
2018-04-16T09:47:11.740Z,15.63
2018-04-16T09:49:42.544Z,15.79
2018-04-16T09:52:13.322Z,15.93
2018-04-16T09:54:44.138Z,16.04
2018-04-16T09:57:14.968Z,16.00
2018-04-16T09:59:45.805Z,15.98
2018-04-16T10:02:22.847Z,16.17
2018-04-16T10:04:53.667Z,16.40
2018-04-16T10:07:24.486Z,16.54
2018-04-16T10:09:55.288Z,16.57
2018-04-16T10:12:26.220Z,16.70
2018-04-16T10:14:57.020Z,16.79
2018-04-16T10:17:27.797Z,16.85
2018-04-16T10:19:58.622Z,16.32
2018-04-16T10:22:29.452Z,16.46
2018-04-16T10:25:00.254Z,16.80
2018-04-16T10:27:31.032Z,16.67
2018-04-16T10:30:01.834Z,16.69
2018-04-16T10:32:32.606Z,16.90
2018-04-16T10:35:03.449Z,17.14
2018-04-16T10:37:34.289Z,17.58
2018-04-16T10:40:05.109Z,17.80
2018-04-16T10:42:35.948Z,18.23
2018-04-16T10:45:06.749Z,18.28
2018-04-16T10:47:37.530Z,18.81
2018-04-16T10:50:08.342Z,19.29
2018-04-16T10:52:39.144Z,18.75
2018-04-16T10:55:10.004Z,19.26
2018-04-16T10:57:40.812Z,19.56
2018-04-16T11:00:11.652Z,19.13
2018-04-16T11:02:42.436Z,19.49
2018-04-16T11:05:13.300Z,19.57
2018-04-16T11:07:44.096Z,19.54
2018-04-16T11:10:14.942Z,20.04
2018-04-16T11:12:45.739Z,19.92
2018-04-16T11:15:16.521Z,19.57
2018-04-16T11:17:47.321Z,19.70
2018-04-16T11:20:18.168Z,19.88
2018-04-16T11:22:48.995Z,20.04
2018-04-16T11:25:19.835Z,20.05
2018-04-16T11:27:50.627Z,19.24
2018-04-16T11:30:21.540Z,19.59
2018-04-16T11:32:52.358Z,19.58
2018-04-16T11:35:23.179Z,19.05
2018-04-16T11:37:54.032Z,18.87
2018-04-16T11:40:24.933Z,18.97
2018-04-16T11:42:55.792Z,19.08
2018-04-16T11:45:26.649Z,19.08
2018-04-16T11:47:57.477Z,18.93
2018-04-16T11:50:28.287Z,19.25
2018-04-16T11:52:59.066Z,19.54
2018-04-16T11:55:29.917Z,19.99
2018-04-16T11:58:00.732Z,19.97
2018-04-16T12:00:31.599Z,20.50
2018-04-16T12:03:02.433Z,20.21
2018-04-16T12:05:33.240Z,20.78
2018-04-16T12:08:04.013Z,19.82
2018-04-16T12:10:34.825Z,19.49
2018-04-16T12:13:05.613Z,19.49
2018-04-16T12:15:36.416Z,19.09
2018-04-16T12:18:07.215Z,18.99
2018-04-16T12:20:38.035Z,19.36
2018-04-16T12:23:08.812Z,19.78
2018-04-16T12:25:39.636Z,20.06
2018-04-16T12:28:10.420Z,19.58
2018-04-16T12:30:41.292Z,19.78
2018-04-16T12:33:12.072Z,20.25
2018-04-16T12:35:42.891Z,20.61
2018-04-16T12:38:13.780Z,21.17
2018-04-16T12:40:44.617Z,21.41
2018-04-16T12:43:15.411Z,20.75
2018-04-16T12:45:46.282Z,21.01
2018-04-16T12:48:17.144Z,20.17
2018-04-16T12:50:47.979Z,20.64
2018-04-16T12:53:18.780Z,20.41
2018-04-16T12:55:49.611Z,20.71
2018-04-16T12:58:20.519Z,20.66
2018-04-16T13:00:51.377Z,20.39
2018-04-16T13:03:22.276Z,20.81
2018-04-16T13:05:53.125Z,20.75
2018-04-16T13:08:23.987Z,20.12
2018-04-16T13:10:54.811Z,19.86
2018-04-16T13:13:25.629Z,20.24
2018-04-16T13:15:56.473Z,20.30
2018-04-16T13:18:27.319Z,21.23
2018-04-16T13:20:59.212Z,21.18
2018-04-16T13:23:30.040Z,22.15
2018-04-16T13:26:00.864Z,22.64
2018-04-16T13:28:31.662Z,22.03
2018-04-16T13:31:02.553Z,23.01
2018-04-16T13:33:33.396Z,23.91
2018-04-16T13:36:04.233Z,22.92
2018-04-16T13:38:36.079Z,23.81
2018-04-16T13:41:06.905Z,22.47
2018-04-16T13:43:37.732Z,22.32
2018-04-16T13:46:08.663Z,22.24
2018-04-16T13:48:39.475Z,21.46
2018-04-16T13:51:10.291Z,21.29
2018-04-16T13:53:41.073Z,20.73
2018-04-16T13:56:11.881Z,20.94
2018-04-16T13:58:42.678Z,20.03
2018-04-16T14:01:13.488Z,19.37
2018-04-16T14:03:44.359Z,19.57
2018-04-16T14:06:15.275Z,19.75
2018-04-16T14:08:46.192Z,19.85
2018-04-16T14:11:16.992Z,19.84
2018-04-16T14:13:47.828Z,20.13
2018-04-16T14:16:18.675Z,20.04
2018-04-16T14:18:49.500Z,20.03
2018-04-16T14:21:20.346Z,20.16
2018-04-16T14:23:51.125Z,20.31
2018-04-16T14:26:21.964Z,20.92
2018-04-16T14:28:52.769Z,20.72
2018-04-16T14:31:23.572Z,20.43
2018-04-16T14:33:54.469Z,20.09
2018-04-16T14:36:25.308Z,19.77
2018-04-16T14:38:56.279Z,19.72
2018-04-16T14:41:27.136Z,20.81
2018-04-16T14:43:57.991Z,21.55
2018-04-16T14:46:29.039Z,21.79
2018-04-16T14:49:00.142Z,21.29
2018-04-16T14:51:30.977Z,21.24
2018-04-16T14:54:01.780Z,21.30
2018-04-16T14:56:32.645Z,21.24
2018-04-16T14:59:03.560Z,20.70
2018-04-16T15:01:34.381Z,20.32
2018-04-16T15:04:05.192Z,20.28
2018-04-16T15:06:36.015Z,20.35
2018-04-16T15:09:06.905Z,20.09
2018-04-16T15:11:37.762Z,19.76
2018-04-16T15:14:08.563Z,19.93
2018-04-16T15:16:39.462Z,19.88
2018-04-16T15:19:10.304Z,19.73
2018-04-16T15:21:41.180Z,19.49
2018-04-16T15:24:11.972Z,19.08
2018-04-16T15:26:42.771Z,19.12
2018-04-16T15:29:13.597Z,18.84
2018-04-16T15:31:44.492Z,18.95
2018-04-16T15:34:15.293Z,18.91
2018-04-16T15:36:46.138Z,18.47
2018-04-16T15:39:16.934Z,17.41
2018-04-16T15:41:47.876Z,16.93
2018-04-16T15:44:18.680Z,16.59
2018-04-16T15:46:49.532Z,16.15
2018-04-16T15:49:20.355Z,15.77
2018-04-16T15:51:51.169Z,15.53
2018-04-16T15:54:21.990Z,15.31
2018-04-16T15:56:52.832Z,14.82
2018-04-16T15:59:23.653Z,14.40
2018-04-16T16:01:54.462Z,14.10
2018-04-16T16:04:25.363Z,13.91
2018-04-16T16:06:56.175Z,13.72
2018-04-16T16:09:27.108Z,13.84
2018-04-16T16:11:58.103Z,13.79
2018-04-16T16:14:28.955Z,13.79
2018-04-16T16:16:59.775Z,13.65
2018-04-16T16:19:30.662Z,13.71
2018-04-16T16:22:01.488Z,13.69
2018-04-16T16:24:32.298Z,13.68
2018-04-16T16:27:03.157Z,13.60
2018-04-16T16:29:33.932Z,13.68
2018-04-16T16:32:04.728Z,13.78
2018-04-16T16:34:35.583Z,13.84
2018-04-16T16:37:06.353Z,13.92
2018-04-16T16:39:37.199Z,13.87
2018-04-16T16:42:08.066Z,13.90
2018-04-16T16:44:38.912Z,13.89
2018-04-16T16:47:09.715Z,13.89
2018-04-16T16:49:40.544Z,13.87
2018-04-16T16:52:11.357Z,13.85
2018-04-16T16:54:42.195Z,13.91
2018-04-16T16:57:13.003Z,13.95
2018-04-16T16:59:44.480Z,13.90
2018-04-16T17:02:15.546Z,13.88
2018-04-16T17:04:46.700Z,13.94
2018-04-16T17:07:17.710Z,13.87
2018-04-16T17:09:48.524Z,13.85
2018-04-16T17:12:19.300Z,13.93
2018-04-16T17:14:50.140Z,13.96
2018-04-16T17:17:20.955Z,14.00
2018-04-16T17:19:51.758Z,13.99
2018-04-16T17:22:22.583Z,13.93
2018-04-16T17:24:53.377Z,13.84
2018-04-16T17:27:24.217Z,13.73
2018-04-16T17:29:55.052Z,13.60
2018-04-16T17:32:25.901Z,13.48
2018-04-16T17:34:56.705Z,13.43
2018-04-16T17:37:27.586Z,13.35
2018-04-16T17:39:58.392Z,13.29
2018-04-16T17:42:29.311Z,13.17
2018-04-16T17:45:00.141Z,13.00
2018-04-16T17:47:30.954Z,12.96
2018-04-16T17:50:01.747Z,12.86
2018-04-16T17:52:32.544Z,12.75
2018-04-16T17:55:03.386Z,12.68
2018-04-16T17:57:34.231Z,12.56
2018-04-16T18:00:05.047Z,12.51
2018-04-16T18:02:35.857Z,12.40
2018-04-16T18:05:06.632Z,12.33
2018-04-16T18:07:37.460Z,12.14
2018-04-16T18:10:08.293Z,12.08
2018-04-16T18:12:39.100Z,12.03
2018-04-16T18:15:09.917Z,11.94
2018-04-16T18:17:40.791Z,11.83
2018-04-16T18:20:11.656Z,11.78
2018-04-16T18:22:42.529Z,11.78
2018-04-16T18:25:13.368Z,11.76
2018-04-16T18:27:44.217Z,11.78
2018-04-16T18:30:15.031Z,11.72
2018-04-16T18:32:45.902Z,11.66
2018-04-16T18:35:16.733Z,11.61
2018-04-16T18:37:47.552Z,11.49
2018-04-16T18:40:18.344Z,11.43
2018-04-16T18:42:49.164Z,11.42
2018-04-16T18:45:19.969Z,11.28
2018-04-16T18:47:50.775Z,11.22
2018-04-16T18:50:21.656Z,11.22
2018-04-16T18:52:52.466Z,11.22
2018-04-16T18:55:23.254Z,11.24
2018-04-16T18:57:54.095Z,11.15
2018-04-16T19:00:24.896Z,11.18
2018-04-16T19:02:55.745Z,11.15
2018-04-16T19:05:26.551Z,11.10
2018-04-16T19:07:57.396Z,11.17
2018-04-16T19:10:28.235Z,11.31
2018-04-16T19:12:59.073Z,11.32
2018-04-16T19:15:29.897Z,11.27
2018-04-16T19:18:00.723Z,11.30
2018-04-16T19:20:37.652Z,11.26
2018-04-16T19:23:08.456Z,11.36
2018-04-16T19:25:39.252Z,11.33
2018-04-16T19:28:14.777Z,11.45
2018-04-16T19:30:45.732Z,11.43
2018-04-16T19:33:22.708Z,11.37
2018-04-16T19:35:53.877Z,11.31
2018-04-16T19:38:24.821Z,11.30
2018-04-16T19:40:55.645Z,11.34
2018-04-16T19:43:26.429Z,11.27
2018-04-16T19:45:57.259Z,11.21
2018-04-16T19:48:34.290Z,11.20
2018-04-16T19:51:05.084Z,11.06
2018-04-16T19:53:35.876Z,10.93
2018-04-16T19:56:12.705Z,10.88
2018-04-16T19:58:43.585Z,10.85
2018-04-16T20:01:14.618Z,10.71
2018-04-16T20:03:51.667Z,10.68
2018-04-16T20:06:22.483Z,10.65
2018-04-16T20:08:53.320Z,10.54
2018-04-16T20:11:24.162Z,10.48
2018-04-16T20:13:54.992Z,10.33
2018-04-16T20:16:25.933Z,10.23
2018-04-16T20:18:56.768Z,10.45
2018-04-16T20:21:27.592Z,10.69
2018-04-16T20:23:58.429Z,10.64
2018-04-16T20:26:29.280Z,10.51
2018-04-16T20:29:00.206Z,10.50
2018-04-16T20:31:31.118Z,10.49
2018-04-16T20:34:01.928Z,10.45
2018-04-16T20:36:33.055Z,10.45
2018-04-16T20:39:03.955Z,10.47
2018-04-16T20:41:34.788Z,10.57
2018-04-16T20:44:05.623Z,10.79
2018-04-16T20:46:36.414Z,11.02
2018-04-16T20:49:07.422Z,11.15
2018-04-16T20:51:38.227Z,11.12
2018-04-16T20:54:09.104Z,11.07
2018-04-16T20:56:39.918Z,11.00
2018-04-16T20:59:10.719Z,10.95
2018-04-16T21:01:41.565Z,10.86
2018-04-16T21:04:12.387Z,10.76
2018-04-16T21:06:43.250Z,10.71
2018-04-16T21:09:14.255Z,10.63
2018-04-16T21:11:45.196Z,10.62
2018-04-16T21:14:16.059Z,10.55
2018-04-16T21:16:46.952Z,10.49
2018-04-16T21:19:17.819Z,10.40
2018-04-16T21:21:48.734Z,10.44
2018-04-16T21:24:19.598Z,10.45
2018-04-16T21:26:50.506Z,10.53
2018-04-16T21:29:21.365Z,10.59
2018-04-16T21:31:52.320Z,10.62
2018-04-16T21:34:23.242Z,10.66
2018-04-16T21:36:54.116Z,10.65
2018-04-16T21:39:25.014Z,10.55
2018-04-16T21:41:55.885Z,10.46
2018-04-16T21:44:26.781Z,10.35
2018-04-16T21:46:57.766Z,10.28
2018-04-16T21:49:28.686Z,10.16
2018-04-16T21:51:59.612Z,10.27
2018-04-16T21:54:30.568Z,10.20
2018-04-16T21:57:01.471Z,10.27
2018-04-16T21:59:32.447Z,10.20
2018-04-16T22:02:03.397Z,10.12
2018-04-16T22:04:34.390Z,10.07
2018-04-16T22:07:05.295Z,10.01
2018-04-16T22:09:36.151Z,9.90
2018-04-16T22:12:07.024Z,9.88
2018-04-16T22:14:37.922Z,9.88
2018-04-16T22:17:08.811Z,9.90
2018-04-16T22:19:39.716Z,9.98
2018-04-16T22:22:10.617Z,10.02
2018-04-16T22:24:41.531Z,9.99
2018-04-16T22:27:12.455Z,9.88
2018-04-16T22:29:43.381Z,9.85
2018-04-16T22:32:14.331Z,9.87
2018-04-16T22:34:45.280Z,9.81
2018-04-16T22:37:16.248Z,9.76
2018-04-16T22:39:47.168Z,9.66
2018-04-16T22:42:18.015Z,9.53
2018-04-16T22:44:48.883Z,9.43
2018-04-16T22:47:19.740Z,9.35
2018-04-16T22:49:50.596Z,9.41
2018-04-16T22:52:21.452Z,9.42
2018-04-16T22:54:52.328Z,9.37
2018-04-16T22:57:23.196Z,9.31
2018-04-16T22:59:54.119Z,9.35
2018-04-16T23:02:24.988Z,9.44
2018-04-16T23:04:55.868Z,9.48
2018-04-16T23:07:26.708Z,9.44
2018-04-16T23:09:57.567Z,9.43
2018-04-16T23:12:28.480Z,9.43
2018-04-16T23:14:59.353Z,9.43
2018-04-16T23:17:30.195Z,9.30
2018-04-16T23:20:01.049Z,9.21
2018-04-16T23:22:31.936Z,9.20
2018-04-16T23:25:02.799Z,9.07
2018-04-16T23:27:33.728Z,8.98
2018-04-16T23:30:04.603Z,9.02
2018-04-16T23:32:35.453Z,9.00
2018-04-16T23:35:06.316Z,8.96
2018-04-16T23:37:37.165Z,8.87
2018-04-16T23:40:08.080Z,8.84
2018-04-16T23:42:38.922Z,8.81
2018-04-16T23:45:09.799Z,8.76
2018-04-16T23:47:40.648Z,8.76
2018-04-16T23:50:11.535Z,8.76
2018-04-16T23:52:42.391Z,8.67
2018-04-16T23:55:13.356Z,8.65
2018-04-16T23:57:44.225Z,8.66
